createdAt,value
2018-08-11T07:31:18.074Z,16.60
2018-08-11T07:33:54.326Z,16.70
2018-08-11T07:36:25.005Z,16.80
2018-08-11T07:38:55.926Z,16.80
2018-08-11T07:41:25.948Z,16.90
2018-08-11T07:43:57.739Z,17.00
2018-08-11T07:46:31.554Z,17.20
2018-08-11T07:49:06.827Z,17.30
2018-08-11T08:08:49.061Z,17.90
2018-08-11T08:11:40.848Z,18.00
2018-08-11T08:14:11.210Z,18.00
2018-08-11T08:16:47.452Z,18.10
2018-08-11T08:19:25.074Z,18.30
2018-08-11T08:24:46.715Z,18.10
2018-08-11T08:27:32.980Z,18.00
2018-08-11T08:30:31.783Z,17.90
2018-08-11T08:33:16.529Z,17.90
2018-08-11T08:35:45.509Z,17.80
2018-08-11T08:39:12.484Z,17.80
2018-08-11T09:30:26.178Z,17.40
2018-08-11T09:32:54.994Z,19.30
2018-08-11T10:21:46.631Z,19.40
2018-08-11T10:24:17.580Z,19.50
2018-08-11T10:26:46.499Z,19.50
2018-08-11T10:29:20.609Z,19.50
2018-08-11T10:31:54.041Z,19.50
2018-08-11T10:34:33.097Z,19.50
2018-08-11T10:37:01.814Z,19.60
2018-08-11T10:39:30.385Z,19.50
2018-08-11T10:45:44.251Z,19.60
2018-08-11T10:48:30.323Z,19.80
2018-08-11T10:50:59.170Z,19.80
2018-08-11T10:53:36.568Z,19.90
2018-08-11T10:56:06.260Z,19.90
2018-08-11T10:58:42.276Z,19.90
2018-08-11T11:01:11.173Z,19.80
2018-08-11T11:03:40.033Z,19.80
2018-08-11T11:06:08.498Z,19.80
2018-08-11T11:08:37.391Z,19.90
2018-08-11T11:11:06.092Z,20.00
2018-08-11T11:13:34.703Z,20.10
2018-08-11T11:16:04.759Z,20.10
2018-08-11T11:18:41.245Z,20.10
2018-08-11T11:21:30.632Z,20.30
2018-08-11T11:24:17.360Z,20.70
2018-08-11T11:26:47.996Z,21.00
2018-08-11T11:49:29.384Z,21.40
2018-08-11T12:27:08.722Z,21.70
2018-08-11T12:29:37.389Z,23.60
2018-08-11T12:32:06.000Z,23.50
2018-08-11T12:34:35.347Z,23.40
2018-08-11T12:37:04.114Z,23.40
2018-08-11T12:39:32.657Z,23.60
2018-08-11T12:42:03.558Z,23.70
2018-08-11T12:44:32.139Z,23.70
2018-08-11T12:47:00.737Z,23.60
2018-08-11T12:49:29.373Z,23.50
2018-08-11T12:51:58.035Z,23.40
2018-08-11T12:54:26.693Z,23.40
2018-08-11T12:56:55.410Z,23.40
2018-08-11T12:59:23.892Z,23.40
2018-08-11T13:01:52.524Z,23.40
2018-08-11T13:04:21.056Z,23.50
2018-08-11T13:06:49.648Z,23.50
2018-08-11T13:09:18.272Z,23.60
2018-08-11T13:11:46.890Z,23.50
2018-08-11T13:14:15.392Z,23.60
2018-08-11T13:16:44.021Z,23.70
2018-08-11T13:19:12.571Z,23.90
2018-08-11T13:21:41.127Z,24.10
2018-08-11T13:24:09.646Z,24.30
2018-08-11T13:26:38.290Z,24.40
2018-08-11T13:29:06.859Z,24.50
2018-08-11T13:31:35.339Z,24.50
2018-08-11T13:34:04.024Z,24.60
2018-08-11T13:36:32.852Z,24.60
2018-08-11T13:39:02.170Z,24.70
2018-08-11T13:41:39.451Z,24.70
2018-08-11T13:44:08.196Z,24.60
2018-08-11T13:46:36.722Z,24.50
2018-08-11T13:49:05.642Z,24.40
2018-08-11T13:51:34.215Z,24.20
2018-08-11T13:54:03.253Z,24.20
2018-08-11T13:56:31.818Z,24.30
2018-08-11T13:59:02.541Z,24.50
2018-08-11T14:01:32.017Z,24.70
2018-08-11T14:04:00.674Z,24.80
2018-08-11T14:06:30.145Z,24.90
2018-08-11T14:08:58.915Z,24.90
2018-08-11T14:11:27.764Z,24.90
2018-08-11T14:14:02.130Z,24.70
2018-08-11T14:16:33.855Z,24.50
2018-08-11T14:19:02.524Z,24.40
2018-08-11T14:21:37.760Z,24.30
2018-08-11T14:24:11.536Z,24.30
2018-08-11T14:26:41.220Z,24.40
2018-08-11T14:29:09.925Z,24.60
2018-08-11T14:31:38.549Z,24.80
2018-08-11T14:34:07.377Z,24.90
2018-08-11T14:36:35.967Z,25.00
2018-08-11T14:39:06.549Z,25.10
2018-08-11T14:41:34.969Z,25.10
2018-08-11T14:44:03.558Z,24.90
2018-08-11T14:46:32.134Z,24.60
2018-08-11T14:49:00.811Z,24.40
2018-08-11T14:51:33.818Z,24.30
2018-08-11T14:54:02.291Z,24.20
2018-08-11T14:56:30.895Z,24.30
2018-08-11T14:59:01.661Z,24.40
2018-08-11T15:01:30.565Z,24.60
2018-08-11T15:07:01.296Z,25.20
2018-08-11T15:09:29.918Z,25.40
2018-08-11T15:11:59.690Z,25.50
2018-08-11T15:17:13.235Z,25.50
2018-08-11T15:19:41.816Z,25.40
2018-08-11T15:22:11.593Z,25.40
2018-08-11T15:24:40.263Z,25.50
2018-08-11T15:30:10.376Z,25.70
2018-08-11T15:32:38.980Z,25.70
2018-08-11T15:35:09.000Z,25.70
2018-08-11T15:37:38.107Z,25.80
2018-08-11T15:40:07.490Z,25.80
2018-08-11T15:42:55.866Z,25.80
2018-08-11T15:45:24.314Z,25.90
2018-08-11T15:47:52.995Z,26.10
2018-08-11T15:53:21.423Z,26.30
2018-08-11T15:55:50.018Z,26.40
2018-08-11T15:58:18.583Z,26.30
2018-08-11T16:00:47.249Z,26.20
2018-08-11T16:03:19.384Z,26.20
2018-08-11T16:05:47.883Z,26.20
2018-08-11T16:08:16.725Z,26.20
2018-08-11T16:14:07.762Z,25.90
2018-08-11T16:16:36.241Z,25.50
2018-08-11T16:19:04.904Z,25.30
2018-08-11T16:21:33.471Z,25.10
2018-08-11T16:24:01.992Z,24.90
2018-08-11T16:29:34.593Z,24.40
2018-08-11T16:32:04.619Z,24.30
2018-08-11T16:34:49.249Z,24.20
2018-08-11T16:37:18.063Z,24.10
2018-08-11T16:39:49.844Z,24.00
2018-08-11T17:06:55.387Z,23.80
2018-08-11T17:09:23.827Z,23.10
2018-08-11T17:11:52.245Z,22.90
2018-08-11T17:14:20.662Z,22.70
2018-08-11T17:16:55.850Z,22.70
2018-08-11T17:19:24.968Z,22.60
2018-08-11T17:21:54.418Z,22.50
2018-08-11T17:24:22.873Z,22.50
2018-08-11T17:27:02.566Z,22.40
2018-08-11T17:29:57.755Z,22.40
2018-08-11T17:35:13.079Z,22.30
2018-08-11T17:37:41.955Z,22.20
2018-08-11T17:55:08.969Z,22.00
2018-08-11T17:57:45.396Z,21.70
2018-08-11T18:00:19.756Z,21.60
2018-08-11T18:02:48.694Z,21.50
2018-08-11T18:05:17.218Z,21.40
2018-08-11T18:07:45.853Z,21.30
2018-08-11T18:10:14.581Z,21.30
2018-08-11T18:12:43.206Z,21.30
2018-08-11T18:15:12.742Z,21.20
2018-08-11T18:17:41.283Z,21.10
2018-08-11T18:20:10.160Z,21.10
2018-08-11T18:22:43.278Z,21.00
2018-08-11T18:25:14.402Z,20.90
2018-08-11T18:27:43.628Z,20.80
2018-08-11T18:30:12.522Z,20.80
2018-08-11T18:32:42.080Z,20.70
2018-08-11T18:35:13.350Z,20.60
2018-08-11T18:37:43.923Z,20.50
2018-08-11T18:40:12.896Z,20.40
2018-08-11T18:42:41.615Z,20.40
2018-08-11T18:45:11.102Z,20.30
2018-08-11T18:47:39.701Z,20.20
2018-08-11T18:50:08.319Z,20.10
2018-08-11T18:52:37.028Z,20.00
2018-08-11T18:55:07.302Z,19.90
2018-08-11T18:57:37.018Z,19.80
2018-08-11T19:00:11.217Z,19.70
